sensor_id;sensor_type;location;lat;lon;timestamp;temperature;humidity
19279;DHT22;9773;47.062;15.446;2023-05-10T00:00:14;10.00;99.90
19279;DHT22;9773;47.062;15.446;2023-05-10T00:02:43;10.00;99.90
19279;DHT22;9773;47.062;15.446;2023-05-10T00:05:09;8.60;99.90
19279;DHT22;9773;47.062;15.446;2023-05-10T00:07:37;9.90;99.90
19279;DHT22;9773;47.062;15.446;2023-05-10T00:10:04;9.80;99.90
19279;DHT22;9773;47.062;15.446;2023-05-10T00:12:30;9.80;99.90
19279;DHT22;9773;47.062;15.446;2023-05-10T00:14:56;9.80;99.90
19279;DHT22;9773;47.062;15.446;2023-05-10T00:17:21;9.80;99.90
19279;DHT22;9773;47.062;15.446;2023-05-10T00:19:47;9.90;99.90
19279;DHT22;9773;47.062;15.446;2023-05-10T00:22:13;9.90;99.90
19279;DHT22;9773;47.062;15.446;2023-05-10T00:24:39;9.80;99.90
19279;DHT22;9773;47.062;15.446;2023-05-10T00:27:05;9.80;99.90
19279;DHT22;9773;47.062;15.446;2023-05-10T00:29:31;9.70;99.90
19279;DHT22;9773;47.062;15.446;2023-05-10T00:31:57;9.60;99.90
19279;DHT22;9773;47.062;15.446;2023-05-10T00:34:22;9.70;99.90
19279;DHT22;9773;47.062;15.446;2023-05-10T00:36:50;9.60;99.90
19279;DHT22;9773;47.062;15.446;2023-05-10T00:39:16;9.60;99.90
19279;DHT22;9773;47.062;15.446;2023-05-10T00:41:41;9.60;99.90
19279;DHT22;9773;47.062;15.446;2023-05-10T00:44:07;9.50;99.90
19279;DHT22;9773;47.062;15.446;2023-05-10T00:46:33;9.50;99.90
19279;DHT22;9773;47.062;15.446;2023-05-10T00:48:59;9.50;99.90
19279;DHT22;9773;47.062;15.446;2023-05-10T00:51:25;9.60;99.90
19279;DHT22;9773;47.062;15.446;2023-05-10T00:53:51;9.60;99.90
19279;DHT22;9773;47.062;15.446;2023-05-10T00:56:17;9.60;99.90
19279;DHT22;9773;47.062;15.446;2023-05-10T00:58:43;9.50;99.90
19279;DHT22;9773;47.062;15.446;2023-05-10T01:01:09;9.60;99.90
19279;DHT22;9773;47.062;15.446;2023-05-10T01:03:36;9.50;99.90
19279;DHT22;9773;47.062;15.446;2023-05-10T01:06:02;9.60;99.90
19279;DHT22;9773;47.062;15.446;2023-05-10T01:08:28;9.50;99.90
19279;DHT22;9773;47.062;15.446;2023-05-10T01:10:55;9.40;99.90
19279;DHT22;9773;47.062;15.446;2023-05-10T01:13:50;9.40;99.90
19279;DHT22;9773;47.062;15.446;2023-05-10T01:16:16;9.50;99.90
19279;DHT22;9773;47.062;15.446;2023-05-10T01:18:43;9.50;99.90
19279;DHT22;9773;47.062;15.446;2023-05-10T01:21:23;9.50;99.90
19279;DHT22;9773;47.062;15.446;2023-05-10T01:24:09;9.40;99.90
19279;DHT22;9773;47.062;15.446;2023-05-10T01:29:31;9.20;99.90
19279;DHT22;9773;47.062;15.446;2023-05-10T01:32:21;9.20;99.90
19279;DHT22;9773;47.062;15.446;2023-05-10T01:35:37;9.20;99.90
19279;DHT22;9773;47.062;15.446;2023-05-10T01:38:04;7.60;99.90
19279;DHT22;9773;47.062;15.446;2023-05-10T01:40:37;9.10;99.90
19279;DHT22;9773;47.062;15.446;2023-05-10T01:43:08;9.00;99.90
19279;DHT22;9773;47.062;15.446;2023-05-10T01:45:37;9.00;99.90
19279;DHT22;9773;47.062;15.446;2023-05-10T01:48:10;8.90;99.90
19279;DHT22;9773;47.062;15.446;2023-05-10T01:50:38;9.00;99.90
19279;DHT22;9773;47.062;15.446;2023-05-10T01:53:08;9.00;99.90
19279;DHT22;9773;47.062;15.446;2023-05-10T01:55:43;8.90;99.90
19279;DHT22;9773;47.062;15.446;2023-05-10T01:58:14;8.70;99.90
19279;DHT22;9773;47.062;15.446;2023-05-10T02:00:43;8.60;99.90
19279;DHT22;9773;47.062;15.446;2023-05-10T02:03:10;8.60;99.90
19279;DHT22;9773;47.062;15.446;2023-05-10T02:05:38;8.60;99.90
19279;DHT22;9773;47.062;15.446;2023-05-10T02:08:06;8.50;99.90
19279;DHT22;9773;47.062;15.446;2023-05-10T02:10:34;8.50;99.90
19279;DHT22;9773;47.062;15.446;2023-05-10T02:13:02;8.50;99.90
19279;DHT22;9773;47.062;15.446;2023-05-10T02:15:29;8.50;99.90
19279;DHT22;9773;47.062;15.446;2023-05-10T02:17:56;8.50;99.90
19279;DHT22;9773;47.062;15.446;2023-05-10T02:20:24;8.40;99.90
19279;DHT22;9773;47.062;15.446;2023-05-10T02:22:52;8.40;99.90
19279;DHT22;9773;47.062;15.446;2023-05-10T02:25:21;8.50;99.90
19279;DHT22;9773;47.062;15.446;2023-05-10T02:27:48;8.50;99.90
19279;DHT22;9773;47.062;15.446;2023-05-10T02:30:14;8.50;99.90
19279;DHT22;9773;47.062;15.446;2023-05-10T02:32:41;8.40;99.90
19279;DHT22;9773;47.062;15.446;2023-05-10T02:35:08;8.40;99.90
19279;DHT22;9773;47.062;15.446;2023-05-10T02:37:37;8.40;99.90
19279;DHT22;9773;47.062;15.446;2023-05-10T02:40:04;8.20;99.90
19279;DHT22;9773;47.062;15.446;2023-05-10T02:42:35;8.20;99.90
19279;DHT22;9773;47.062;15.446;2023-05-10T02:45:03;8.30;99.90
19279;DHT22;9773;47.062;15.446;2023-05-10T02:47:30;8.30;99.90
19279;DHT22;9773;47.062;15.446;2023-05-10T02:49:56;8.30;99.90
19279;DHT22;9773;47.062;15.446;2023-05-10T02:52:29;8.30;99.90
19279;DHT22;9773;47.062;15.446;2023-05-10T02:54:56;8.30;99.90
19279;DHT22;9773;47.062;15.446;2023-05-10T02:57:29;8.30;99.90
19279;DHT22;9773;47.062;15.446;2023-05-10T02:59:57;8.30;99.90
19279;DHT22;9773;47.062;15.446;2023-05-10T03:02:23;8.30;99.90
19279;DHT22;9773;47.062;15.446;2023-05-10T03:04:49;8.30;99.90
19279;DHT22;9773;47.062;15.446;2023-05-10T03:07:15;7.00;99.90
19279;DHT22;9773;47.062;15.446;2023-05-10T03:09:42;8.40;99.90
19279;DHT22;9773;47.062;15.446;2023-05-10T03:12:15;8.40;99.90
19279;DHT22;9773;47.062;15.446;2023-05-10T03:18:03;8.30;99.90
19279;DHT22;9773;47.062;15.446;2023-05-10T03:20:38;8.20;99.90
19279;DHT22;9773;47.062;15.446;2023-05-10T03:25:48;8.10;99.90
19279;DHT22;9773;47.062;15.446;2023-05-10T03:28:16;8.00;99.90
19279;DHT22;9773;47.062;15.446;2023-05-10T03:30:43;8.00;99.90
19279;DHT22;9773;47.062;15.446;2023-05-10T03:33:09;8.00;99.90
19279;DHT22;9773;47.062;15.446;2023-05-10T03:35:35;8.10;99.90
19279;DHT22;9773;47.062;15.446;2023-05-10T03:38:01;8.10;99.90
19279;DHT22;9773;47.062;15.446;2023-05-10T03:40:27;8.20;99.90
19279;DHT22;9773;47.062;15.446;2023-05-10T03:43:00;8.10;99.90
19279;DHT22;9773;47.062;15.446;2023-05-10T03:45:26;8.10;99.90
19279;DHT22;9773;47.062;15.446;2023-05-10T03:47:52;8.00;99.90
19279;DHT22;9773;47.062;15.446;2023-05-10T03:50:18;8.10;99.90
19279;DHT22;9773;47.062;15.446;2023-05-10T03:52:44;8.00;99.90
19279;DHT22;9773;47.062;15.446;2023-05-10T03:55:10;7.90;99.90
19279;DHT22;9773;47.062;15.446;2023-05-10T03:57:36;7.90;99.90
19279;DHT22;9773;47.062;15.446;2023-05-10T04:00:02;7.90;99.90
19279;DHT22;9773;47.062;15.446;2023-05-10T04:02:28;8.00;99.90
19279;DHT22;9773;47.062;15.446;2023-05-10T04:04:55;8.10;99.90
19279;DHT22;9773;47.062;15.446;2023-05-10T04:07:21;8.00;99.90
19279;DHT22;9773;47.062;15.446;2023-05-10T04:09:47;8.10;99.90
19279;DHT22;9773;47.062;15.446;2023-05-10T04:12:13;8.10;99.90
19279;DHT22;9773;47.062;15.446;2023-05-10T04:14:38;8.20;99.90
19279;DHT22;9773;47.062;15.446;2023-05-10T04:17:04;8.20;99.90
19279;DHT22;9773;47.062;15.446;2023-05-10T04:19:31;8.20;99.90
19279;DHT22;9773;47.062;15.446;2023-05-10T04:21:58;8.30;99.90
19279;DHT22;9773;47.062;15.446;2023-05-10T04:24:25;8.30;99.90
19279;DHT22;9773;47.062;15.446;2023-05-10T04:26:51;8.20;99.90
19279;DHT22;9773;47.062;15.446;2023-05-10T04:29:17;8.30;99.90
19279;DHT22;9773;47.062;15.446;2023-05-10T04:31:42;8.40;99.90
19279;DHT22;9773;47.062;15.446;2023-05-10T04:34:08;8.30;99.90
19279;DHT22;9773;47.062;15.446;2023-05-10T04:36:35;8.30;99.90
19279;DHT22;9773;47.062;15.446;2023-05-10T04:39:04;8.30;99.90
19279;DHT22;9773;47.062;15.446;2023-05-10T04:41:33;8.80;99.90
19279;DHT22;9773;47.062;15.446;2023-05-10T04:44:19;8.40;99.90
19279;DHT22;9773;47.062;15.446;2023-05-10T04:46:44;8.40;99.90
19279;DHT22;9773;47.062;15.446;2023-05-10T04:49:12;8.50;99.90
19279;DHT22;9773;47.062;15.446;2023-05-10T04:51:38;8.50;99.90
19279;DHT22;9773;47.062;15.446;2023-05-10T04:54:04;8.60;99.90
19279;DHT22;9773;47.062;15.446;2023-05-10T04:56:32;8.70;99.90
19279;DHT22;9773;47.062;15.446;2023-05-10T04:58:58;8.70;99.90
19279;DHT22;9773;47.062;15.446;2023-05-10T05:01:24;8.70;99.90
19279;DHT22;9773;47.062;15.446;2023-05-10T05:03:53;8.80;99.90
19279;DHT22;9773;47.062;15.446;2023-05-10T05:06:19;9.80;99.90
19279;DHT22;9773;47.062;15.446;2023-05-10T05:08:46;8.90;99.90
19279;DHT22;9773;47.062;15.446;2023-05-10T05:11:12;8.90;99.90
19279;DHT22;9773;47.062;15.446;2023-05-10T05:13:38;9.00;99.90
19279;DHT22;9773;47.062;15.446;2023-05-10T05:16:04;9.10;99.90
19279;DHT22;9773;47.062;15.446;2023-05-10T05:18:30;9.20;99.90
19279;DHT22;9773;47.062;15.446;2023-05-10T05:20:56;9.20;99.90
19279;DHT22;9773;47.062;15.446;2023-05-10T05:23:22;9.30;99.90
19279;DHT22;9773;47.062;15.446;2023-05-10T05:25:52;9.30;99.90
19279;DHT22;9773;47.062;15.446;2023-05-10T05:28:19;9.30;99.90
19279;DHT22;9773;47.062;15.446;2023-05-10T05:30:45;9.80;99.90
19279;DHT22;9773;47.062;15.446;2023-05-10T05:33:10;9.40;99.90
19279;DHT22;9773;47.062;15.446;2023-05-10T05:35:37;9.80;99.90
19279;DHT22;9773;47.062;15.446;2023-05-10T05:38:03;9.50;99.90
19279;DHT22;9773;47.062;15.446;2023-05-10T05:40:29;9.50;99.90
19279;DHT22;9773;47.062;15.446;2023-05-10T05:42:55;9.70;99.90
19279;DHT22;9773;47.062;15.446;2023-05-10T05:45:21;9.70;99.90
19279;DHT22;9773;47.062;15.446;2023-05-10T05:47:47;9.80;99.90
19279;DHT22;9773;47.062;15.446;2023-05-10T05:50:13;9.90;99.90
19279;DHT22;9773;47.062;15.446;2023-05-10T05:52:39;10.00;99.90
19279;DHT22;9773;47.062;15.446;2023-05-10T05:55:05;10.10;99.90
19279;DHT22;9773;47.062;15.446;2023-05-10T05:57:30;10.30;99.90
19279;DHT22;9773;47.062;15.446;2023-05-10T05:59:56;10.50;99.90
19279;DHT22;9773;47.062;15.446;2023-05-10T06:02:22;10.50;99.90
19279;DHT22;9773;47.062;15.446;2023-05-10T06:04:48;10.60;99.90
19279;DHT22;9773;47.062;15.446;2023-05-10T06:07:14;10.60;99.90
19279;DHT22;9773;47.062;15.446;2023-05-10T06:09:40;10.60;99.90
19279;DHT22;9773;47.062;15.446;2023-05-10T06:12:06;10.70;99.90
19279;DHT22;9773;47.062;15.446;2023-05-10T06:14:32;10.80;99.90
19279;DHT22;9773;47.062;15.446;2023-05-10T06:16:57;11.00;99.90
19279;DHT22;9773;47.062;15.446;2023-05-10T06:19:25;11.20;99.90
19279;DHT22;9773;47.062;15.446;2023-05-10T06:21:51;11.40;99.90
19279;DHT22;9773;47.062;15.446;2023-05-10T06:24:17;11.50;99.90
19279;DHT22;9773;47.062;15.446;2023-05-10T06:26:43;11.60;99.90
19279;DHT22;9773;47.062;15.446;2023-05-10T06:29:08;11.70;99.90
19279;DHT22;9773;47.062;15.446;2023-05-10T06:31:34;11.70;99.90
19279;DHT22;9773;47.062;15.446;2023-05-10T06:34:00;11.80;99.90
19279;DHT22;9773;47.062;15.446;2023-05-10T06:36:27;11.90;99.90
19279;DHT22;9773;47.062;15.446;2023-05-10T06:38:53;12.00;99.90
19279;DHT22;9773;47.062;15.446;2023-05-10T06:41:19;12.00;99.90
19279;DHT22;9773;47.062;15.446;2023-05-10T06:43:45;12.10;99.90
19279;DHT22;9773;47.062;15.446;2023-05-10T06:46:11;12.20;99.90
19279;DHT22;9773;47.062;15.446;2023-05-10T06:48:37;12.20;99.90
19279;DHT22;9773;47.062;15.446;2023-05-10T06:51:03;12.20;99.90
19279;DHT22;9773;47.062;15.446;2023-05-10T06:53:28;12.30;99.90
19279;DHT22;9773;47.062;15.446;2023-05-10T06:55:54;12.30;99.90
19279;DHT22;9773;47.062;15.446;2023-05-10T06:58:20;12.20;99.90
19279;DHT22;9773;47.062;15.446;2023-05-10T07:00:45;12.20;99.90
19279;DHT22;9773;47.062;15.446;2023-05-10T07:03:12;12.30;99.90
19279;DHT22;9773;47.062;15.446;2023-05-10T07:05:38;12.50;99.90
19279;DHT22;9773;47.062;15.446;2023-05-10T07:08:03;12.70;99.90
19279;DHT22;9773;47.062;15.446;2023-05-10T07:10:29;12.90;99.90
19279;DHT22;9773;47.062;15.446;2023-05-10T07:12:55;12.80;99.90
19279;DHT22;9773;47.062;15.446;2023-05-10T07:15:21;13.10;99.90
19279;DHT22;9773;47.062;15.446;2023-05-10T07:17:47;13.20;99.90
19279;DHT22;9773;47.062;15.446;2023-05-10T07:20:14;13.10;99.90
19279;DHT22;9773;47.062;15.446;2023-05-10T07:22:40;13.10;99.90
19279;DHT22;9773;47.062;15.446;2023-05-10T07:25:06;13.30;99.90
19279;DHT22;9773;47.062;15.446;2023-05-10T07:27:32;13.40;99.90
19279;DHT22;9773;47.062;15.446;2023-05-10T07:29:58;13.50;99.90
19279;DHT22;9773;47.062;15.446;2023-05-10T07:32:24;13.60;99.90
19279;DHT22;9773;47.062;15.446;2023-05-10T07:34:52;13.60;99.90
19279;DHT22;9773;47.062;15.446;2023-05-10T07:37:18;13.60;99.90
19279;DHT22;9773;47.062;15.446;2023-05-10T07:39:43;13.60;99.90
19279;DHT22;9773;47.062;15.446;2023-05-10T07:42:09;13.60;99.90
19279;DHT22;9773;47.062;15.446;2023-05-10T07:44:35;13.60;99.90
19279;DHT22;9773;47.062;15.446;2023-05-10T07:47:01;13.70;99.90
19279;DHT22;9773;47.062;15.446;2023-05-10T07:49:26;13.70;99.90
19279;DHT22;9773;47.062;15.446;2023-05-10T07:51:52;13.70;99.90
19279;DHT22;9773;47.062;15.446;2023-05-10T07:54:18;13.80;99.90
19279;DHT22;9773;47.062;15.446;2023-05-10T07:56:43;13.80;99.90
19279;DHT22;9773;47.062;15.446;2023-05-10T07:59:15;13.80;99.90
19279;DHT22;9773;47.062;15.446;2023-05-10T08:01:41;13.90;99.90
19279;DHT22;9773;47.062;15.446;2023-05-10T08:04:07;14.00;99.90
19279;DHT22;9773;47.062;15.446;2023-05-10T08:06:34;14.20;99.90
19279;DHT22;9773;47.062;15.446;2023-05-10T08:09:00;14.50;99.90
19279;DHT22;9773;47.062;15.446;2023-05-10T08:11:26;14.70;99.90
19279;DHT22;9773;47.062;15.446;2023-05-10T08:13:53;14.80;99.90
19279;DHT22;9773;47.062;15.446;2023-05-10T08:16:20;15.10;99.90
19279;DHT22;9773;47.062;15.446;2023-05-10T08:18:46;15.00;99.90
19279;DHT22;9773;47.062;15.446;2023-05-10T08:21:13;15.10;99.90
19279;DHT22;9773;47.062;15.446;2023-05-10T08:23:39;15.30;99.90
19279;DHT22;9773;47.062;15.446;2023-05-10T08:26:05;15.30;99.90
19279;DHT22;9773;47.062;15.446;2023-05-10T08:28:31;15.40;99.90
19279;DHT22;9773;47.062;15.446;2023-05-10T08:30:56;15.50;99.90
19279;DHT22;9773;47.062;15.446;2023-05-10T08:33:22;15.70;99.90
19279;DHT22;9773;47.062;15.446;2023-05-10T08:35:48;15.80;99.90
19279;DHT22;9773;47.062;15.446;2023-05-10T08:38:14;18.40;99.90
19279;DHT22;9773;47.062;15.446;2023-05-10T08:40:44;17.40;99.90
19279;DHT22;9773;47.062;15.446;2023-05-10T08:43:12;15.80;99.90
19279;DHT22;9773;47.062;15.446;2023-05-10T08:45:40;15.80;99.90
19279;DHT22;9773;47.062;15.446;2023-05-10T08:48:07;16.10;99.90
19279;DHT22;9773;47.062;15.446;2023-05-10T08:50:38;16.20;99.90
19279;DHT22;9773;47.062;15.446;2023-05-10T08:53:14;16.40;99.90
19279;DHT22;9773;47.062;15.446;2023-05-10T08:55:41;16.60;99.90
19279;DHT22;9773;47.062;15.446;2023-05-10T08:58:09;16.60;99.20
19279;DHT22;9773;47.062;15.446;2023-05-10T09:00:36;16.50;99.20
19279;DHT22;9773;47.062;15.446;2023-05-10T09:03:04;16.50;99.60
19279;DHT22;9773;47.062;15.446;2023-05-10T09:05:30;16.50;98.90
19279;DHT22;9773;47.062;15.446;2023-05-10T09:07:56;16.50;98.90
19279;DHT22;9773;47.062;15.446;2023-05-10T09:10:22;16.30;98.70
19279;DHT22;9773;47.062;15.446;2023-05-10T09:12:51;16.40;99.70
19279;DHT22;9773;47.062;15.446;2023-05-10T09:15:19;16.60;99.50
19279;DHT22;9773;47.062;15.446;2023-05-10T09:17:46;16.40;98.90
19279;DHT22;9773;47.062;15.446;2023-05-10T09:20:12;16.70;98.60
19279;DHT22;9773;47.062;15.446;2023-05-10T09:22:38;17.10;98.30
19279;DHT22;9773;47.062;15.446;2023-05-10T09:25:10;17.30;97.40
19279;DHT22;9773;47.062;15.446;2023-05-10T09:27:37;17.30;97.40
19279;DHT22;9773;47.062;15.446;2023-05-10T09:30:04;17.30;97.50
19279;DHT22;9773;47.062;15.446;2023-05-10T09:35:10;17.60;98.30
19279;DHT22;9773;47.062;15.446;2023-05-10T09:37:40;17.70;98.00
19279;DHT22;9773;47.062;15.446;2023-05-10T09:40:13;17.80;98.50
19279;DHT22;9773;47.062;15.446;2023-05-10T09:42:43;18.00;97.70
19279;DHT22;9773;47.062;15.446;2023-05-10T09:45:15;18.00;97.80
19279;DHT22;9773;47.062;15.446;2023-05-10T09:47:41;17.70;97.50
19279;DHT22;9773;47.062;15.446;2023-05-10T09:50:07;16.00;97.30
19279;DHT22;9773;47.062;15.446;2023-05-10T09:53:01;17.90;97.70
19279;DHT22;9773;47.062;15.446;2023-05-10T09:55:42;18.10;97.10
19279;DHT22;9773;47.062;15.446;2023-05-10T09:58:10;18.20;97.00
19279;DHT22;9773;47.062;15.446;2023-05-10T10:00:41;18.30;97.20
19279;DHT22;9773;47.062;15.446;2023-05-10T10:03:13;18.30;96.90
19279;DHT22;9773;47.062;15.446;2023-05-10T10:05:43;18.30;96.30
19279;DHT22;9773;47.062;15.446;2023-05-10T10:08:09;18.10;96.30
19279;DHT22;9773;47.062;15.446;2023-05-10T10:10:35;17.60;95.90
19279;DHT22;9773;47.062;15.446;2023-05-10T10:13:01;17.30;96.60
19279;DHT22;9773;47.062;15.446;2023-05-10T10:15:30;17.50;97.00
19279;DHT22;9773;47.062;15.446;2023-05-10T10:17:56;17.80;97.50
19279;DHT22;9773;47.062;15.446;2023-05-10T10:20:22;18.10;97.50
19279;DHT22;9773;47.062;15.446;2023-05-10T10:22:49;18.30;96.60
19279;DHT22;9773;47.062;15.446;2023-05-10T10:25:16;18.50;95.80
19279;DHT22;9773;47.062;15.446;2023-05-10T10:30:37;18.50;93.30
19279;DHT22;9773;47.062;15.446;2023-05-10T10:36:12;17.50;95.20
19279;DHT22;9773;47.062;15.446;2023-05-10T10:41:38;18.10;96.30
19279;DHT22;9773;47.062;15.446;2023-05-10T10:50:05;18.40;94.90
19279;DHT22;9773;47.062;15.446;2023-05-10T10:52:38;18.20;95.80
19279;DHT22;9773;47.062;15.446;2023-05-10T10:55:13;18.30;96.30
19279;DHT22;9773;47.062;15.446;2023-05-10T11:00:24;18.90;96.00
19279;DHT22;9773;47.062;15.446;2023-05-10T11:03:13;18.80;96.00
19279;DHT22;9773;47.062;15.446;2023-05-10T11:05:40;18.70;95.40
19279;DHT22;9773;47.062;15.446;2023-05-10T11:10:34;18.20;96.20
19279;DHT22;9773;47.062;15.446;2023-05-10T11:13:07;18.20;96.00
19279;DHT22;9773;47.062;15.446;2023-05-10T11:15:38;18.00;96.40
19279;DHT22;9773;47.062;15.446;2023-05-10T11:18:20;18.00;96.80
19279;DHT22;9773;47.062;15.446;2023-05-10T11:20:58;17.90;96.30
19279;DHT22;9773;47.062;15.446;2023-05-10T11:23:30;17.80;96.20
19279;DHT22;9773;47.062;15.446;2023-05-10T11:25:56;17.70;96.40
19279;DHT22;9773;47.062;15.446;2023-05-10T11:28:22;17.80;96.80
19279;DHT22;9773;47.062;15.446;2023-05-10T11:30:48;17.90;96.90
19279;DHT22;9773;47.062;15.446;2023-05-10T11:33:18;17.80;97.10
19279;DHT22;9773;47.062;15.446;2023-05-10T11:35:45;17.80;97.40
19279;DHT22;9773;47.062;15.446;2023-05-10T11:38:12;17.90;97.10
19279;DHT22;9773;47.062;15.446;2023-05-10T11:40:39;17.90;96.60
19279;DHT22;9773;47.062;15.446;2023-05-10T11:43:05;17.80;95.40
19279;DHT22;9773;47.062;15.446;2023-05-10T11:45:34;17.70;95.70
19279;DHT22;9773;47.062;15.446;2023-05-10T11:48:01;17.60;95.70
19279;DHT22;9773;47.062;15.446;2023-05-10T11:50:28;17.60;95.50
19279;DHT22;9773;47.062;15.446;2023-05-10T11:52:55;17.60;95.70
19279;DHT22;9773;47.062;15.446;2023-05-10T11:55:21;17.50;95.80
19279;DHT22;9773;47.062;15.446;2023-05-10T11:57:51;17.60;96.00
19279;DHT22;9773;47.062;15.446;2023-05-10T12:00:16;17.60;95.70
19279;DHT22;9773;47.062;15.446;2023-05-10T12:02:42;17.50;95.70
19279;DHT22;9773;47.062;15.446;2023-05-10T12:05:09;17.60;96.20
19279;DHT22;9773;47.062;15.446;2023-05-10T12:07:35;17.70;95.90
19279;DHT22;9773;47.062;15.446;2023-05-10T12:12:42;17.80;96.20
19279;DHT22;9773;47.062;15.446;2023-05-10T12:15:18;17.80;95.30
19279;DHT22;9773;47.062;15.446;2023-05-10T12:17:45;17.80;95.50
19279;DHT22;9773;47.062;15.446;2023-05-10T12:20:22;17.80;96.60
19279;DHT22;9773;47.062;15.446;2023-05-10T12:22:52;17.60;97.20
19279;DHT22;9773;47.062;15.446;2023-05-10T12:25:20;17.60;97.00
19279;DHT22;9773;47.062;15.446;2023-05-10T12:27:51;17.40;97.00
19279;DHT22;9773;47.062;15.446;2023-05-10T12:32:47;17.40;96.70
19279;DHT22;9773;47.062;15.446;2023-05-10T12:35:13;17.30;96.80
19279;DHT22;9773;47.062;15.446;2023-05-10T12:37:38;17.30;97.70
19279;DHT22;9773;47.062;15.446;2023-05-10T12:40:08;17.30;97.00
19279;DHT22;9773;47.062;15.446;2023-05-10T12:42:36;17.20;97.60
19279;DHT22;9773;47.062;15.446;2023-05-10T12:45:03;17.30;96.30
19279;DHT22;9773;47.062;15.446;2023-05-10T12:47:29;17.30;95.70
19279;DHT22;9773;47.062;15.446;2023-05-10T12:49:55;17.40;95.60
19279;DHT22;9773;47.062;15.446;2023-05-10T12:52:21;17.30;95.80
19279;DHT22;9773;47.062;15.446;2023-05-10T12:54:47;17.20;95.40
19279;DHT22;9773;47.062;15.446;2023-05-10T12:57:13;17.20;95.50
19279;DHT22;9773;47.062;15.446;2023-05-10T12:59:42;17.10;95.40
19279;DHT22;9773;47.062;15.446;2023-05-10T13:02:08;17.20;96.10
19279;DHT22;9773;47.062;15.446;2023-05-10T13:04:34;17.00;97.20
19279;DHT22;9773;47.062;15.446;2023-05-10T13:07:01;17.10;97.10
19279;DHT22;9773;47.062;15.446;2023-05-10T13:09:27;17.20;97.00
19279;DHT22;9773;47.062;15.446;2023-05-10T13:11:56;17.30;96.60
19279;DHT22;9773;47.062;15.446;2023-05-10T13:14:22;17.30;96.60
19279;DHT22;9773;47.062;15.446;2023-05-10T13:16:47;17.40;97.50
19279;DHT22;9773;47.062;15.446;2023-05-10T13:19:14;17.50;96.90
19279;DHT22;9773;47.062;15.446;2023-05-10T13:21:40;17.50;97.10
19279;DHT22;9773;47.062;15.446;2023-05-10T13:24:10;17.50;97.10
19279;DHT22;9773;47.062;15.446;2023-05-10T13:26:36;17.50;95.70
19279;DHT22;9773;47.062;15.446;2023-05-10T13:29:02;17.50;96.00
19279;DHT22;9773;47.062;15.446;2023-05-10T13:31:28;17.40;96.50
19279;DHT22;9773;47.062;15.446;2023-05-10T13:33:55;17.40;96.80
19279;DHT22;9773;47.062;15.446;2023-05-10T13:36:20;17.30;96.10
19279;DHT22;9773;47.062;15.446;2023-05-10T13:38:46;17.30;97.90
19279;DHT22;9773;47.062;15.446;2023-05-10T13:41:12;17.30;96.80
19279;DHT22;9773;47.062;15.446;2023-05-10T13:43:37;17.40;96.50
19279;DHT22;9773;47.062;15.446;2023-05-10T13:46:03;17.30;96.40
19279;DHT22;9773;47.062;15.446;2023-05-10T13:48:29;17.30;96.50
19279;DHT22;9773;47.062;15.446;2023-05-10T13:50:55;17.30;96.20
19279;DHT22;9773;47.062;15.446;2023-05-10T13:53:20;17.40;96.60
19279;DHT22;9773;47.062;15.446;2023-05-10T13:55:46;17.40;96.40
19279;DHT22;9773;47.062;15.446;2023-05-10T13:58:12;17.40;96.30
19279;DHT22;9773;47.062;15.446;2023-05-10T14:00:38;17.40;96.10
19279;DHT22;9773;47.062;15.446;2023-05-10T14:03:04;17.50;96.30
19279;DHT22;9773;47.062;15.446;2023-05-10T14:05:30;17.60;96.00
19279;DHT22;9773;47.062;15.446;2023-05-10T14:07:56;17.70;95.70
19279;DHT22;9773;47.062;15.446;2023-05-10T14:10:22;17.70;95.40
19279;DHT22;9773;47.062;15.446;2023-05-10T14:12:49;17.60;95.10
19279;DHT22;9773;47.062;15.446;2023-05-10T14:15:15;17.60;94.90
19279;DHT22;9773;47.062;15.446;2023-05-10T14:17:40;17.60;94.80
19279;DHT22;9773;47.062;15.446;2023-05-10T14:20:07;17.70;94.80
19279;DHT22;9773;47.062;15.446;2023-05-10T14:22:32;17.80;94.80
19279;DHT22;9773;47.062;15.446;2023-05-10T14:24:58;17.80;94.60
19279;DHT22;9773;47.062;15.446;2023-05-10T14:27:24;17.80;95.30
19279;DHT22;9773;47.062;15.446;2023-05-10T14:29:49;17.80;95.20
19279;DHT22;9773;47.062;15.446;2023-05-10T14:32:15;17.90;94.90
19279;DHT22;9773;47.062;15.446;2023-05-10T14:34:41;17.80;94.50
19279;DHT22;9773;47.062;15.446;2023-05-10T14:37:09;17.90;94.60
19279;DHT22;9773;47.062;15.446;2023-05-10T14:39:35;17.90;94.40
19279;DHT22;9773;47.062;15.446;2023-05-10T14:42:01;17.90;94.80
19279;DHT22;9773;47.062;15.446;2023-05-10T14:44:29;17.90;95.40
19279;DHT22;9773;47.062;15.446;2023-05-10T14:46:54;17.90;95.70
19279;DHT22;9773;47.062;15.446;2023-05-10T14:49:22;18.10;95.40
19279;DHT22;9773;47.062;15.446;2023-05-10T14:51:48;18.10;95.00
19279;DHT22;9773;47.062;15.446;2023-05-10T14:54:14;18.00;94.80
19279;DHT22;9773;47.062;15.446;2023-05-10T14:56:40;18.00;95.00
19279;DHT22;9773;47.062;15.446;2023-05-10T14:59:07;18.20;95.40
19279;DHT22;9773;47.062;15.446;2023-05-10T15:01:34;18.20;95.60
19279;DHT22;9773;47.062;15.446;2023-05-10T15:04:03;18.40;95.00
19279;DHT22;9773;47.062;15.446;2023-05-10T15:06:33;18.50;95.30
19279;DHT22;9773;47.062;15.446;2023-05-10T15:09:00;18.50;95.40
19279;DHT22;9773;47.062;15.446;2023-05-10T15:11:27;18.60;95.00
19279;DHT22;9773;47.062;15.446;2023-05-10T15:13:53;18.70;94.70
19279;DHT22;9773;47.062;15.446;2023-05-10T15:16:19;18.80;94.90
19279;DHT22;9773;47.062;15.446;2023-05-10T15:18:45;18.90;94.90
19279;DHT22;9773;47.062;15.446;2023-05-10T15:21:11;18.90;94.20
19279;DHT22;9773;47.062;15.446;2023-05-10T15:23:37;18.70;94.30
19279;DHT22;9773;47.062;15.446;2023-05-10T15:26:03;18.50;93.90
19279;DHT22;9773;47.062;15.446;2023-05-10T15:28:29;18.30;94.90
19279;DHT22;9773;47.062;15.446;2023-05-10T15:30:55;18.10;94.90
19279;DHT22;9773;47.062;15.446;2023-05-10T15:33:24;18.00;94.90
19279;DHT22;9773;47.062;15.446;2023-05-10T15:35:50;17.90;94.30
19279;DHT22;9773;47.062;15.446;2023-05-10T15:38:16;17.80;94.30
19279;DHT22;9773;47.062;15.446;2023-05-10T15:40:42;17.70;94.30
19279;DHT22;9773;47.062;15.446;2023-05-10T15:43:07;17.70;94.70
19279;DHT22;9773;47.062;15.446;2023-05-10T15:45:33;17.70;94.80
19279;DHT22;9773;47.062;15.446;2023-05-10T15:47:59;17.70;95.10
19279;DHT22;9773;47.062;15.446;2023-05-10T15:50:26;17.80;95.50
19279;DHT22;9773;47.062;15.446;2023-05-10T15:52:51;17.90;95.00
19279;DHT22;9773;47.062;15.446;2023-05-10T15:55:18;18.10;95.00
19279;DHT22;9773;47.062;15.446;2023-05-10T15:57:44;18.30;95.10
19279;DHT22;9773;47.062;15.446;2023-05-10T16:00:11;18.40;94.40
19279;DHT22;9773;47.062;15.446;2023-05-10T16:02:38;18.30;94.20
19279;DHT22;9773;47.062;15.446;2023-05-10T16:05:04;18.30;94.40
19279;DHT22;9773;47.062;15.446;2023-05-10T16:07:30;18.20;94.00
19279;DHT22;9773;47.062;15.446;2023-05-10T16:09:56;18.00;94.10
19279;DHT22;9773;47.062;15.446;2023-05-10T16:12:22;17.90;94.50
19279;DHT22;9773;47.062;15.446;2023-05-10T16:14:48;17.80;94.60